Impacts TAF Board
For situational awareness. Not to be used for flight planning purposes.
IDs:

KTXK - Texarkana Rgnl, AR, US

Issued at 1807 UTC 06 Dec 2019
Updated at 2144 UTC 06 Dec 2019
Potential Impact None Slight Moderate High
Time2053Z 06/22Z 06/23Z 07/00Z 07/01Z 07/02Z 07/03Z 07/04Z 07/05Z 07/06Z 07/07Z 07/08Z 07/09Z 07/10Z>>
Type OBS PRVL PRVL PRVL PRVL PRVL PRVL PRVL PRVL PRVL PRVL PRVL PRVL PRVL
VIS 10 >6 >6 >6 >6 >6 >6 >6 >6 >6 >6 >6 >6 >6
CIG 44 -- -- -- -- -- -- -- -- 35 35 35 35 35
Cover OVC SCT SCT SCT SCT SCT SCT SCT SCT OVC OVC OVC OVC OVC
FltCat VFR VFR VFR VFR VFR VFR VFR VFR VFR VFR VFR VFR VFR VFR
WX -- -- -- -- -- -- -- -- -- -- -- -- -- --
WDir 10 10 10 10 10 10 10 10 10 30 30 30 30 30
WSpd 6 9 9 9 9 9 9 9 9 4 4 4 4 4
WGst -- -- -- -- -- -- -- -- -- -- -- -- -- --
Raw TAF
KTXK 061807Z 0618/0718 01009KT P6SM SCT025
  TEMPO 0618/0620 BKN025
  FM070600 03004KT P6SM OVC035


Raw METAR
KTXK 062053Z 01006KT 10SM OVC044 21/10 A3012 RMK AO2 SLP196 T02060100 53003
KTXK 061953Z 02007KT 10SM SCT038 20/11 A3011 RMK AO2 SLP195 T02000106
KTXK 061853Z 03011KT 350V060 10SM CLR 21/11 A3011 RMK AO2 SLP192 T02060106

METAR Board
Radar Display
Forecast Discussion
For situational awareness. Not to be used for flight planning purposes.